createdAt,value
2023-07-24T00:00:15.241Z,9.279829
2023-07-24T00:01:15.261Z,9.279905
2023-07-24T00:02:15.162Z,9.279947
2023-07-24T00:03:15.189Z,9.279963
2023-07-24T00:04:15.148Z,9.279936
2023-07-24T00:05:15.163Z,9.279992
2023-07-24T00:06:15.071Z,9.279969
2023-07-24T00:07:15.050Z,9.279916
2023-07-24T00:08:15.029Z,9.279961
2023-07-24T00:09:15.042Z,9.279920
2023-07-24T00:10:14.991Z,9.279931
2023-07-24T00:11:14.961Z,9.279948
2023-07-24T00:12:14.938Z,9.279953
2023-07-24T00:13:14.923Z,9.280012
2023-07-24T00:14:14.926Z,9.279983
2023-07-24T00:15:14.872Z,9.279922
2023-07-24T00:16:14.846Z,9.280071
2023-07-24T00:17:14.903Z,9.280070
2023-07-24T00:18:14.833Z,9.280000
2023-07-24T00:19:14.812Z,9.279806
2023-07-24T00:20:14.756Z,9.279861
2023-07-24T00:21:14.741Z,9.279944
2023-07-24T00:22:14.711Z,9.279909
2023-07-24T00:23:14.736Z,9.279948
2023-07-24T00:24:14.690Z,9.280050
2023-07-24T00:25:14.643Z,9.280008
2023-07-24T00:26:14.623Z,9.279997
2023-07-24T00:27:14.607Z,9.279974
2023-07-24T00:28:14.618Z,9.279894
2023-07-24T00:29:14.569Z,9.279828
2023-07-24T00:30:14.539Z,9.279889
2023-07-24T00:31:14.523Z,9.279827
2023-07-24T00:32:14.525Z,9.279777
2023-07-24T00:33:14.511Z,9.279814
2023-07-24T00:34:14.455Z,9.279814
2023-07-24T00:35:14.430Z,9.279867
2023-07-24T00:36:14.405Z,9.279846
2023-07-24T00:37:14.415Z,9.279962
2023-07-24T00:38:14.360Z,9.279767
2023-07-24T00:39:14.339Z,9.279860
2023-07-24T00:40:14.338Z,9.279798
2023-07-24T00:41:14.306Z,9.279915
2023-07-24T00:42:14.307Z,9.279922
2023-07-24T00:43:14.259Z,9.279960
2023-07-24T00:44:14.237Z,9.279922
2023-07-24T00:45:14.214Z,9.279652
2023-07-24T00:46:14.250Z,9.279827
2023-07-24T00:47:14.214Z,9.279902
2023-07-24T00:48:14.148Z,9.279979
2023-07-24T00:49:14.134Z,9.279970
2023-07-24T00:50:14.111Z,9.279966
2023-07-24T00:51:14.109Z,9.280031
2023-07-24T00:52:14.066Z,9.279991
2023-07-24T00:53:14.042Z,9.280073
2023-07-24T00:54:14.024Z,9.279934
2023-07-24T00:55:14.025Z,9.279960
2023-07-24T00:56:14.028Z,9.280037
2023-07-24T00:57:13.945Z,9.279994
2023-07-24T00:58:13.931Z,9.280054
2023-07-24T00:59:13.905Z,9.279925
2023-07-24T01:00:13.912Z,9.279968
2023-07-24T01:01:13.963Z,9.279943
2023-07-24T01:02:13.835Z,9.279916
2023-07-24T01:03:13.810Z,9.279951
2023-07-24T01:04:13.793Z,9.279979
2023-07-24T01:05:13.856Z,9.279943
2023-07-24T01:06:13.748Z,9.279968
2023-07-24T01:07:13.726Z,9.279994
2023-07-24T01:08:13.708Z,9.280002
2023-07-24T01:09:13.717Z,9.280062
2023-07-24T01:10:13.713Z,9.280005
2023-07-24T01:11:13.629Z,9.280053
2023-07-24T01:12:13.612Z,9.279913
2023-07-24T01:13:13.594Z,9.279922
2023-07-24T01:14:13.609Z,9.279948
2023-07-24T01:15:13.572Z,9.279995
2023-07-24T01:16:13.579Z,9.279992
2023-07-24T01:17:13.506Z,9.279918
2023-07-24T01:18:13.485Z,9.279999
2023-07-24T01:19:13.501Z,9.280009
2023-07-24T01:20:13.445Z,9.280023
2023-07-24T01:21:13.424Z,9.280065
2023-07-24T01:22:13.404Z,9.280046
2023-07-24T01:23:13.407Z,9.280060
2023-07-24T01:24:13.444Z,9.280061
2023-07-24T01:25:13.337Z,9.280067
2023-07-24T01:26:13.306Z,9.280053
2023-07-24T01:27:13.282Z,9.280014
2023-07-24T01:28:13.293Z,9.280034
2023-07-24T01:29:13.240Z,9.280047
2023-07-24T01:30:13.212Z,9.280073
2023-07-24T01:31:13.193Z,9.279962
2023-07-24T01:32:13.222Z,9.280116
2023-07-24T01:33:13.177Z,9.280066
2023-07-24T01:34:13.124Z,9.280169
2023-07-24T01:35:13.131Z,9.280017
2023-07-24T01:36:13.088Z,9.279990
2023-07-24T01:37:13.089Z,9.280046
2023-07-24T01:38:13.075Z,9.280108
2023-07-24T01:39:13.015Z,9.280104
2023-07-24T01:40:12.999Z,9.280077
2023-07-24T01:41:12.966Z,9.280091
2023-07-24T01:42:12.962Z,9.280046
2023-07-24T01:43:13.928Z,9.279970
2023-07-24T01:44:12.904Z,9.279967
2023-07-24T01:45:12.877Z,9.280021
2023-07-24T01:46:12.908Z,9.280015
2023-07-24T01:47:12.886Z,9.280068
2023-07-24T01:48:12.870Z,9.280071
2023-07-24T01:49:12.789Z,9.280087
2023-07-24T01:50:12.772Z,9.280053
2023-07-24T01:51:12.775Z,9.280005
2023-07-24T01:52:12.752Z,9.280027
2023-07-24T01:53:12.718Z,9.280104
2023-07-24T01:54:12.681Z,9.280116
2023-07-24T01:55:12.667Z,9.279997
2023-07-24T01:56:12.671Z,9.280018
2023-07-24T01:57:12.622Z,9.279982
2023-07-24T01:58:12.596Z,9.280027
2023-07-24T01:59:12.576Z,9.280087
2023-07-24T02:00:12.563Z,9.280156
2023-07-24T02:01:12.566Z,9.280071
2023-07-24T02:02:13.519Z,9.279972
2023-07-24T02:03:12.610Z,9.280030
2023-07-24T02:04:12.475Z,9.280003
2023-07-24T02:05:12.471Z,9.279933
2023-07-24T02:06:12.453Z,9.279968
2023-07-24T02:07:12.396Z,9.279937
2023-07-24T02:08:12.372Z,9.279940
2023-07-24T02:09:12.350Z,9.280024
2023-07-24T02:10:12.366Z,9.279963
2023-07-24T02:11:12.304Z,9.279943
2023-07-24T02:12:12.285Z,9.279984
2023-07-24T02:13:12.265Z,9.280057
2023-07-24T02:14:12.271Z,9.280014
2023-07-24T02:15:12.256Z,9.279951
2023-07-24T02:16:12.234Z,9.280039
2023-07-24T02:17:12.167Z,9.280054
2023-07-24T02:18:12.144Z,9.280050
2023-07-24T02:19:12.202Z,9.280055
2023-07-24T02:20:12.105Z,9.280096
2023-07-24T02:21:12.078Z,9.280064
2023-07-24T02:22:12.056Z,9.280005
2023-07-24T02:23:12.028Z,9.280018
2023-07-24T02:24:12.088Z,9.279922
2023-07-24T02:25:11.983Z,9.279901
2023-07-24T02:26:11.990Z,9.279964
2023-07-24T02:27:11.944Z,9.279945
2023-07-24T02:28:11.949Z,9.279825
2023-07-24T02:29:11.922Z,9.279859
2023-07-24T02:30:11.882Z,9.279812
2023-07-24T02:31:11.877Z,9.279939
2023-07-24T02:32:11.830Z,9.279912
2023-07-24T02:33:11.834Z,9.279863
2023-07-24T02:34:11.786Z,9.279909
2023-07-24T02:35:11.768Z,9.279910
2023-07-24T02:36:11.741Z,9.279975
2023-07-24T02:37:11.716Z,9.279939
2023-07-24T02:38:11.736Z,9.279978
2023-07-24T02:39:11.681Z,9.279925
2023-07-24T02:40:11.649Z,9.279840
2023-07-24T02:41:11.632Z,9.279904
2023-07-24T02:42:11.639Z,9.279901
2023-07-24T02:43:11.584Z,9.279942
2023-07-24T02:44:11.568Z,9.279902
2023-07-24T02:45:11.565Z,9.279949
2023-07-24T02:46:11.548Z,9.279945
2023-07-24T02:47:11.519Z,9.279897
2023-07-24T02:48:11.468Z,9.279954
2023-07-24T02:49:11.448Z,9.279952
2023-07-24T02:50:11.430Z,9.279883
2023-07-24T02:51:11.402Z,9.279901
2023-07-24T02:52:11.408Z,9.279934
2023-07-24T02:53:11.385Z,9.279944
2023-07-24T02:54:11.346Z,9.279933
2023-07-24T02:55:11.317Z,9.279928
2023-07-24T02:56:11.316Z,9.279976
2023-07-24T02:57:11.298Z,9.279954
2023-07-24T02:58:11.241Z,9.279936
2023-07-24T02:59:11.227Z,9.279837
2023-07-24T03:00:11.220Z,9.279917
2023-07-24T03:01:11.240Z,9.279951
2023-07-24T03:02:11.202Z,9.279938
2023-07-24T03:03:11.289Z,9.279910
2023-07-24T03:04:11.124Z,9.279912
2023-07-24T03:05:11.117Z,9.279907
2023-07-24T03:06:11.106Z,9.279940
2023-07-24T03:07:11.045Z,9.279965
2023-07-24T03:08:11.021Z,9.279993
2023-07-24T03:09:10.999Z,9.279984
2023-07-24T03:10:11.035Z,9.279944
2023-07-24T03:11:10.952Z,9.280063
2023-07-24T03:12:10.949Z,9.280013
2023-07-24T03:13:10.912Z,9.279963
2023-07-24T03:14:10.890Z,9.279994
2023-07-24T03:15:10.899Z,9.279997
2023-07-24T03:16:10.888Z,9.279932
2023-07-24T03:17:10.817Z,9.279999
2023-07-24T03:18:10.801Z,9.279991
2023-07-24T03:19:10.813Z,9.279978
2023-07-24T03:20:10.789Z,9.279951
2023-07-24T03:21:10.727Z,9.280007
2023-07-24T03:22:10.705Z,9.280040
2023-07-24T03:23:10.685Z,9.279849
2023-07-24T03:24:10.694Z,9.279947
2023-07-24T03:25:10.637Z,9.280123
2023-07-24T03:26:10.620Z,9.280100
2023-07-24T03:27:10.591Z,9.280070
2023-07-24T03:28:10.574Z,9.279927
2023-07-24T03:29:10.573Z,9.279948
2023-07-24T03:30:10.537Z,9.279978
2023-07-24T03:31:10.592Z,9.280095
2023-07-24T03:32:10.477Z,9.280061
2023-07-24T03:33:10.490Z,9.279895
2023-07-24T03:34:10.464Z,9.279804
2023-07-24T03:35:10.422Z,9.279826
2023-07-24T03:36:10.395Z,9.279845
2023-07-24T03:37:10.372Z,9.279903
2023-07-24T03:38:10.383Z,9.279945
2023-07-24T03:39:10.323Z,9.279986
2023-07-24T03:40:10.350Z,9.280068
2023-07-24T03:41:10.279Z,9.280269
2023-07-24T03:42:10.259Z,9.280045
2023-07-24T03:43:10.266Z,9.280107
2023-07-24T03:44:10.232Z,9.280079
2023-07-24T03:45:10.193Z,9.279934
2023-07-24T03:46:10.167Z,9.279823
2023-07-24T03:47:10.228Z,9.279964
2023-07-24T03:48:10.240Z,9.280048
2023-07-24T03:49:10.100Z,9.280014
2023-07-24T03:50:10.096Z,9.279931
2023-07-24T03:51:10.057Z,9.279846
2023-07-24T03:52:10.065Z,9.279896
2023-07-24T03:53:10.004Z,9.279975
2023-07-24T03:54:09.986Z,9.279797
2023-07-24T03:55:09.993Z,9.279879
2023-07-24T03:56:09.936Z,9.279890
2023-07-24T03:57:09.938Z,9.279892
2023-07-24T03:58:09.887Z,9.279840
2023-07-24T03:59:09.885Z,9.279969
2023-07-24T04:00:09.848Z,9.279853
2023-07-24T04:01:09.905Z,9.279951
2023-07-24T04:02:10.784Z,9.279995
2023-07-24T04:03:10.832Z,9.279934
2023-07-24T04:04:09.757Z,9.279969
2023-07-24T04:05:09.735Z,9.279950
2023-07-24T04:06:09.746Z,9.279995
2023-07-24T04:07:09.688Z,9.279988
2023-07-24T04:08:09.661Z,9.279982
2023-07-24T04:09:09.643Z,9.279947
2023-07-24T04:10:09.676Z,9.279935
2023-07-24T04:11:09.634Z,9.279947
2023-07-24T04:12:09.613Z,9.279973
2023-07-24T04:13:09.607Z,9.280017
2023-07-24T04:14:09.542Z,9.279922
2023-07-24T04:15:09.621Z,9.279948
2023-07-24T04:16:09.566Z,9.279969
2023-07-24T04:17:09.507Z,9.280025
2023-07-24T04:18:09.511Z,9.279963
2023-07-24T04:19:09.431Z,9.279963
2023-07-24T04:20:09.441Z,9.279959
2023-07-24T04:21:09.389Z,9.279965
2023-07-24T04:22:09.368Z,9.279914
2023-07-24T04:23:09.347Z,9.279831
2023-07-24T04:24:09.353Z,9.279931
2023-07-24T04:25:09.342Z,9.279950
2023-07-24T04:26:09.282Z,9.279902
2023-07-24T04:27:09.260Z,9.279984
2023-07-24T04:28:09.241Z,9.279955
2023-07-24T04:29:09.324Z,9.279996
2023-07-24T04:30:09.232Z,9.280014
2023-07-24T04:31:09.253Z,9.279955
2023-07-24T04:32:09.160Z,9.279969
2023-07-24T04:33:09.145Z,9.279946
2023-07-24T04:34:09.148Z,9.279971
2023-07-24T04:35:09.100Z,9.279975
2023-07-24T04:36:09.082Z,9.279951
2023-07-24T04:37:09.069Z,9.279859
2023-07-24T04:38:09.069Z,9.279930
2023-07-24T04:39:09.052Z,9.279896
2023-07-24T04:40:09.003Z,9.279913
2023-07-24T04:41:08.984Z,9.279880
2023-07-24T04:42:08.963Z,9.279898
2023-07-24T04:43:09.003Z,9.279883
2023-07-24T04:44:08.928Z,9.279922
2023-07-24T04:45:08.903Z,9.279880
2023-07-24T04:46:08.895Z,9.279856
2023-07-24T04:47:08.868Z,9.279888
2023-07-24T04:48:08.922Z,9.279863
2023-07-24T04:49:08.825Z,9.279863
2023-07-24T04:50:08.807Z,9.279940
2023-07-24T04:51:08.787Z,9.279876
2023-07-24T04:52:08.793Z,9.279870
2023-07-24T04:53:08.770Z,9.279949
2023-07-24T04:54:08.735Z,9.279954
2023-07-24T04:55:08.695Z,9.279933
2023-07-24T04:56:08.675Z,9.279951
2023-07-24T04:57:08.683Z,9.279981
2023-07-24T04:58:08.636Z,9.279976
2023-07-24T04:59:08.616Z,9.279934
2023-07-24T05:00:08.593Z,9.279934
2023-07-24T05:01:08.590Z,9.279902
2023-07-24T05:02:08.615Z,9.279890
2023-07-24T05:03:08.574Z,9.279963
2023-07-24T05:04:08.562Z,9.279963
2023-07-24T05:05:08.497Z,9.279946
2023-07-24T05:06:08.503Z,9.279963
2023-07-24T05:07:08.484Z,9.279959
2023-07-24T05:08:08.432Z,9.280021
2023-07-24T05:09:08.413Z,9.279967
2023-07-24T05:10:08.411Z,9.279890
2023-07-24T05:11:08.403Z,9.279947
2023-07-24T05:12:08.352Z,9.280009
2023-07-24T05:13:08.355Z,9.279993
2023-07-24T05:14:08.313Z,9.280046
2023-07-24T05:15:08.292Z,9.279937
2023-07-24T05:16:08.329Z,9.279923
2023-07-24T05:17:08.255Z,9.279935
2023-07-24T05:18:08.234Z,9.279960
2023-07-24T05:19:08.223Z,9.279997
2023-07-24T05:20:08.223Z,9.280027
2023-07-24T05:21:08.211Z,9.279998
2023-07-24T05:22:08.157Z,9.280042
2023-07-24T05:23:08.133Z,9.279963
2023-07-24T05:24:08.116Z,9.279908
2023-07-24T05:25:08.122Z,9.279924
2023-07-24T05:26:08.078Z,9.280052
2023-07-24T05:27:08.056Z,9.280181
2023-07-24T05:28:08.042Z,9.280094
2023-07-24T05:29:08.013Z,9.280044
2023-07-24T05:30:08.028Z,9.279960
2023-07-24T05:31:07.974Z,9.279939
2023-07-24T05:32:07.959Z,9.280010
2023-07-24T05:33:07.986Z,9.279979
2023-07-24T05:34:08.953Z,9.279947
2023-07-24T05:35:07.917Z,9.279946
2023-07-24T05:36:07.873Z,9.279959
2023-07-24T05:37:07.849Z,9.279934
2023-07-24T05:38:07.837Z,9.279972
2023-07-24T05:39:07.836Z,9.280033
2023-07-24T05:40:07.782Z,9.279996
2023-07-24T05:41:07.760Z,9.280007
2023-07-24T05:42:07.741Z,9.280077
2023-07-24T05:43:07.760Z,9.280129
2023-07-24T05:44:07.754Z,9.279955
2023-07-24T05:45:07.688Z,9.279933
2023-07-24T05:46:07.674Z,9.279897
2023-07-24T05:47:07.648Z,9.279882
2023-07-24T05:48:07.681Z,9.279985
2023-07-24T05:49:07.597Z,9.280081
2023-07-24T05:50:07.572Z,9.280008
2023-07-24T05:51:07.558Z,9.279963
2023-07-24T05:52:07.536Z,9.279977
2023-07-24T05:53:07.544Z,9.280099
2023-07-24T05:54:07.493Z,9.280058
2023-07-24T05:55:07.499Z,9.280025
2023-07-24T05:56:07.456Z,9.279999
2023-07-24T05:57:07.491Z,9.279955
2023-07-24T05:58:07.465Z,9.279998
2023-07-24T05:59:07.423Z,9.279952
2023-07-24T06:00:07.437Z,9.279890
2023-07-24T06:01:07.400Z,9.279923
2023-07-24T06:02:07.372Z,9.279901
2023-07-24T06:03:08.677Z,9.279987
2023-07-24T06:04:07.351Z,9.279995
2023-07-24T06:05:07.323Z,9.279974
2023-07-24T06:06:07.270Z,9.279981
2023-07-24T06:07:07.279Z,9.280030
2023-07-24T06:08:07.217Z,9.280074
2023-07-24T06:09:07.211Z,9.280128
2023-07-24T06:10:07.186Z,9.280052
2023-07-24T06:11:07.201Z,9.280043
2023-07-24T06:12:07.180Z,9.280046
2023-07-24T06:13:07.133Z,9.280046
2023-07-24T06:14:07.112Z,9.279984
2023-07-24T06:15:07.161Z,9.280059
2023-07-24T06:16:07.103Z,9.280217
2023-07-24T06:17:07.053Z,9.280084
2023-07-24T06:18:07.095Z,9.280068
2023-07-24T06:19:07.063Z,9.280047
2023-07-24T06:20:07.034Z,9.280020
2023-07-24T06:21:07.012Z,9.279874
2023-07-24T06:22:06.969Z,9.279881
2023-07-24T06:23:06.952Z,9.279861
2023-07-24T06:24:06.924Z,9.279914
2023-07-24T06:25:06.946Z,9.279969
2023-07-24T06:26:06.920Z,9.279990
2023-07-24T06:27:06.872Z,9.279875
2023-07-24T06:28:06.857Z,9.279929
2023-07-24T06:29:06.834Z,9.280020
2023-07-24T06:30:14.959Z,9.279937
2023-07-24T06:31:08.831Z,9.280121
2023-07-24T06:32:06.796Z,9.280118
2023-07-24T06:33:06.796Z,9.279937
2023-07-24T06:34:06.778Z,9.279991
2023-07-24T06:35:06.759Z,9.280042
2023-07-24T06:36:06.708Z,9.280050
2023-07-24T06:37:20.693Z,9.279934
2023-07-24T06:38:08.684Z,9.280020
2023-07-24T06:39:06.720Z,9.279903
2023-07-24T06:40:06.672Z,9.279921
2023-07-24T06:41:06.630Z,9.279948
2023-07-24T06:42:06.609Z,9.279939
2023-07-24T06:43:06.604Z,9.279951
2023-07-24T06:44:06.613Z,9.279924
2023-07-24T06:45:08.380Z,9.279971
2023-07-24T06:46:07.593Z,9.280021
2023-07-24T06:47:06.526Z,9.279908
2023-07-24T06:48:06.550Z,9.279996
2023-07-24T06:49:06.519Z,9.279969
2023-07-24T06:50:06.482Z,9.279908
2023-07-24T06:51:06.605Z,9.279936
2023-07-24T06:52:06.444Z,9.279902
2023-07-24T06:53:06.456Z,9.279902
2023-07-24T06:54:06.409Z,9.279938
2023-07-24T06:55:06.387Z,9.279877
2023-07-24T06:56:06.375Z,9.279963
2023-07-24T06:57:06.351Z,9.280015
2023-07-24T06:58:06.376Z,9.279971
2023-07-24T06:59:06.321Z,9.279902
2023-07-24T07:00:06.316Z,9.279962
2023-07-24T07:01:06.368Z,9.279927
2023-07-24T07:02:06.368Z,9.279935
2023-07-24T07:03:06.308Z,9.279850
2023-07-24T07:04:06.240Z,9.279966
2023-07-24T07:05:06.253Z,9.280003
2023-07-24T07:06:06.203Z,9.279972
2023-07-24T07:07:06.221Z,9.279929
2023-07-24T07:08:06.169Z,9.279842
2023-07-24T07:09:06.144Z,9.279865
2023-07-24T07:10:06.135Z,9.279887
2023-07-24T07:11:06.110Z,9.279884
2023-07-24T07:12:06.125Z,9.279942
2023-07-24T07:13:06.075Z,9.279981
2023-07-24T07:14:06.054Z,9.279987
2023-07-24T07:15:06.037Z,9.280003
2023-07-24T07:16:06.067Z,9.279953
2023-07-24T07:17:06.037Z,9.279925
2023-07-24T07:18:06.023Z,9.279948
2023-07-24T07:19:05.982Z,9.279931
2023-07-24T07:20:05.959Z,9.279883
2023-07-24T07:21:05.974Z,9.279875
2023-07-24T07:22:05.930Z,9.279815
2023-07-24T07:23:05.910Z,9.279853
2023-07-24T07:24:05.885Z,9.279818
2023-07-24T07:25:05.950Z,9.279873
2023-07-24T07:26:05.884Z,9.279971
2023-07-24T07:27:05.838Z,9.279881
2023-07-24T07:28:05.811Z,9.279927
2023-07-24T07:29:05.816Z,9.279962
2023-07-24T07:30:05.840Z,9.279881
2023-07-24T07:31:05.811Z,9.279952
2023-07-24T07:32:05.771Z,9.279962
2023-07-24T07:33:05.804Z,9.279912
2023-07-24T07:34:05.724Z,9.279940
2023-07-24T07:35:05.812Z,9.279947
2023-07-24T07:36:05.688Z,9.279938
2023-07-24T07:37:05.669Z,9.279926
2023-07-24T07:38:05.656Z,9.279902
2023-07-24T07:39:05.653Z,9.279863
2023-07-24T07:40:05.650Z,9.279874
2023-07-24T07:41:05.612Z,9.279911
2023-07-24T07:42:16.303Z,9.279876
2023-07-24T07:43:07.577Z,9.279826
2023-07-24T07:44:05.585Z,9.279856
2023-07-24T07:45:05.556Z,9.279862
2023-07-24T07:46:05.527Z,9.279884
2023-07-24T07:47:05.559Z,9.279824
2023-07-24T07:48:05.519Z,9.279840
2023-07-24T07:49:05.494Z,9.279670
2023-07-24T07:50:05.449Z,9.279737
2023-07-24T07:51:05.446Z,9.279755
2023-07-24T07:52:05.412Z,9.279770
2023-07-24T07:53:05.421Z,9.279750
2023-07-24T07:54:05.418Z,9.279760
2023-07-24T07:55:05.355Z,9.279748
2023-07-24T07:56:05.341Z,9.279775
2023-07-24T07:57:05.320Z,9.279771
2023-07-24T07:58:05.336Z,9.279810
2023-07-24T07:59:05.285Z,9.279773
2023-07-24T08:00:05.316Z,9.279793
2023-07-24T08:01:05.308Z,9.279785
2023-07-24T08:02:05.239Z,9.279779
2023-07-24T08:03:05.332Z,9.279797
2023-07-24T08:04:05.194Z,9.279807
2023-07-24T08:05:12.120Z,9.279830
2023-07-24T08:06:07.182Z,9.279874
2023-07-24T08:07:05.157Z,9.279845
2023-07-24T08:08:05.159Z,9.279869
2023-07-24T08:09:05.115Z,9.279806
2023-07-24T08:10:05.088Z,9.279803
2023-07-24T08:11:05.077Z,9.279938
2023-07-24T08:12:07.127Z,9.279862
2023-07-24T08:13:05.066Z,9.279866
2023-07-24T08:14:05.023Z,9.279853
2023-07-24T08:15:05.006Z,9.279857
2023-07-24T08:16:04.982Z,9.279845
2023-07-24T08:17:05.112Z,9.279898
2023-07-24T08:18:05.052Z,9.279912
2023-07-24T08:19:04.936Z,9.279876
2023-07-24T08:20:04.936Z,9.279856
2023-07-24T08:21:04.928Z,9.279882
2023-07-24T08:22:04.916Z,9.279777
2023-07-24T08:23:04.885Z,9.279760
2023-07-24T08:24:04.855Z,9.279877
2023-07-24T08:25:04.840Z,9.279858
2023-07-24T08:26:04.881Z,9.279911
2023-07-24T08:27:04.829Z,9.280074
2023-07-24T08:28:06.336Z,9.279856
2023-07-24T08:29:05.773Z,9.279839
2023-07-24T08:30:04.768Z,9.279869
2023-07-24T08:31:07.293Z,9.279817
2023-07-24T08:32:05.820Z,9.279770
2023-07-24T08:33:04.740Z,9.279756
2023-07-24T08:34:04.688Z,9.279857
2023-07-24T08:35:04.676Z,9.279842
2023-07-24T08:36:04.677Z,9.279634
2023-07-24T08:37:04.635Z,9.279689
2023-07-24T08:38:04.628Z,9.279766
2023-07-24T08:39:04.596Z,9.279866
2023-07-24T08:40:04.603Z,9.279721
2023-07-24T08:41:04.644Z,9.279777
2023-07-24T08:42:04.588Z,9.279778
2023-07-24T08:43:04.548Z,9.279774
2023-07-24T08:44:04.552Z,9.279859
2023-07-24T08:45:04.553Z,9.279879
2023-07-24T08:46:04.482Z,9.279938
2023-07-24T08:47:04.510Z,9.279966
2023-07-24T08:48:04.499Z,9.279907
2023-07-24T08:49:04.462Z,9.279885
2023-07-24T08:50:04.441Z,9.279897
2023-07-24T08:51:04.393Z,9.279868
2023-07-24T08:52:04.372Z,9.279875
2023-07-24T08:53:04.364Z,9.279860
2023-07-24T08:54:04.365Z,9.279866
2023-07-24T08:55:04.325Z,9.279940
2023-07-24T08:56:04.309Z,9.279934
2023-07-24T08:57:04.298Z,9.279921
2023-07-24T08:58:04.272Z,9.279875
2023-07-24T08:59:04.289Z,9.279887
2023-07-24T09:00:04.228Z,9.279878
2023-07-24T09:01:04.251Z,9.279895
2023-07-24T09:02:04.202Z,9.279894
2023-07-24T09:03:04.332Z,9.279880
2023-07-24T09:04:04.266Z,9.279826
2023-07-24T09:05:04.163Z,9.279912
2023-07-24T09:06:04.222Z,9.279878
2023-07-24T09:07:04.112Z,9.279866
2023-07-24T09:08:04.127Z,9.279836
2023-07-24T09:09:04.089Z,9.279864
2023-07-24T09:10:04.062Z,9.279807
2023-07-24T09:11:04.058Z,9.279741
2023-07-24T09:12:04.037Z,9.279898
2023-07-24T09:13:04.046Z,9.279944
2023-07-24T09:15:06.238Z,9.279834
2023-07-24T09:16:03.956Z,9.279994
2023-07-24T09:17:04.060Z,9.279962
2023-07-24T09:18:04.465Z,9.279841
2023-07-24T09:19:11.309Z,9.279902
2023-07-24T09:20:05.902Z,9.279849
2023-07-24T09:21:03.876Z,9.279916
2023-07-24T09:22:03.885Z,9.279928
2023-07-24T09:23:15.319Z,9.279937
2023-07-24T09:24:05.827Z,9.279926
2023-07-24T09:25:03.806Z,9.279965
2023-07-24T09:26:04.344Z,9.279879
2023-07-24T09:27:03.813Z,9.279919
2023-07-24T09:28:03.778Z,9.279925
2023-07-24T09:29:03.731Z,9.279891
2023-07-24T09:30:03.719Z,9.279947
2023-07-24T09:31:03.886Z,9.279931
2023-07-24T09:32:04.705Z,9.279904
2023-07-24T09:33:03.736Z,9.279988
2023-07-24T09:34:03.658Z,9.279978
2023-07-24T09:35:05.493Z,9.279997
2023-07-24T09:36:04.667Z,9.279964
2023-07-24T09:37:03.588Z,9.279983
2023-07-24T09:38:03.575Z,9.279919
2023-07-24T09:39:03.553Z,9.279902
2023-07-24T09:40:03.528Z,9.280003
2023-07-24T09:41:03.543Z,9.279976
2023-07-24T09:42:03.532Z,9.279947
2023-07-24T09:43:30.172Z,9.279957
2023-07-24T09:44:05.459Z,9.279943
2023-07-24T09:45:03.478Z,9.279968
2023-07-24T09:46:03.464Z,9.279914
2023-07-24T09:47:27.370Z,9.279923
2023-07-24T09:48:08.336Z,9.279892
2023-07-24T09:50:04.402Z,9.279955
2023-07-24T09:51:03.339Z,9.279978
2023-07-24T09:52:03.315Z,9.280009
2023-07-24T09:53:03.296Z,9.279983
2023-07-24T09:54:03.283Z,9.279920
2023-07-24T09:55:03.294Z,9.280010
2023-07-24T09:56:03.251Z,9.279914
2023-07-24T09:57:15.061Z,9.279924
2023-07-24T09:58:05.197Z,9.280025
2023-07-24T09:59:03.215Z,9.280132
2023-07-24T10:00:03.269Z,9.279954
2023-07-24T10:01:03.146Z,9.279976
2023-07-24T10:02:03.171Z,9.279955
2023-07-24T10:03:03.185Z,9.280007
2023-07-24T10:04:03.142Z,9.280021
2023-07-24T10:05:03.072Z,9.279934
2023-07-24T10:06:03.049Z,9.279930
2023-07-24T10:07:03.029Z,9.279893
2023-07-24T10:08:03.045Z,9.279823
2023-07-24T10:09:03.022Z,9.279908
2023-07-24T10:10:02.978Z,9.279901
2023-07-24T10:11:02.954Z,9.279931
2023-07-24T10:12:02.937Z,9.279960
2023-07-24T10:13:02.954Z,9.279876
2023-07-24T10:14:02.910Z,9.279851
2023-07-24T10:15:02.959Z,9.279837
2023-07-24T10:16:02.895Z,9.279849
2023-07-24T10:17:02.843Z,9.279864
2023-07-24T10:18:02.934Z,9.279859
2023-07-24T10:19:02.807Z,9.279837
2023-07-24T10:20:02.789Z,9.279912
2023-07-24T10:21:02.764Z,9.279971
2023-07-24T10:22:02.748Z,9.279964
2023-07-24T10:23:02.768Z,9.279926
2023-07-24T10:24:02.714Z,9.279908
2023-07-24T10:25:02.737Z,9.279880
2023-07-24T10:26:02.676Z,9.279886
2023-07-24T10:27:02.687Z,9.279915
2023-07-24T10:28:02.669Z,9.279883
2023-07-24T10:29:02.933Z,9.279913
2023-07-24T10:30:06.878Z,9.280018
2023-07-24T10:31:02.683Z,9.279986
2023-07-24T10:32:02.733Z,9.279938
2023-07-24T10:33:02.643Z,9.279930
2023-07-24T10:34:02.581Z,9.279932
2023-07-24T10:35:03.510Z,9.279890
2023-07-24T10:36:02.496Z,9.279923
2023-07-24T10:37:02.503Z,9.279831
2023-07-24T10:38:02.461Z,9.279979
2023-07-24T10:39:02.446Z,9.279895
2023-07-24T10:40:02.419Z,9.279963
2023-07-24T10:41:02.431Z,9.280010
2023-07-24T10:42:02.417Z,9.280032
2023-07-24T10:43:02.379Z,9.279985
2023-07-24T10:44:02.346Z,9.279907
2023-07-24T10:45:02.341Z,9.279993
2023-07-24T10:46:02.411Z,9.279993
2023-07-24T10:47:02.292Z,9.280000
2023-07-24T10:48:02.311Z,9.279962
2023-07-24T10:49:02.257Z,9.279918
2023-07-24T10:50:02.244Z,9.279902
2023-07-24T10:51:02.249Z,9.279904
2023-07-24T10:52:02.201Z,9.279920
2023-07-24T10:53:02.184Z,9.279940
2023-07-24T10:54:02.162Z,9.279882
2023-07-24T10:55:02.171Z,9.279933
2023-07-24T10:56:02.155Z,9.279933
2023-07-24T10:57:02.345Z,9.279907
2023-07-24T10:58:02.864Z,9.279826
2023-07-24T10:59:02.071Z,9.279909
2023-07-24T11:00:02.081Z,9.279882
2023-07-24T11:01:02.070Z,9.279838
2023-07-24T11:02:02.029Z,9.279884
2023-07-24T11:03:02.007Z,9.279897
2023-07-24T11:04:01.989Z,9.279946
2023-07-24T11:05:02.099Z,9.279935
2023-07-24T11:06:01.939Z,9.279971
2023-07-24T11:07:01.942Z,9.279968
2023-07-24T11:08:01.906Z,9.279965
2023-07-24T11:09:01.921Z,9.280006
2023-07-24T11:10:01.898Z,9.279944
2023-07-24T11:11:01.852Z,9.280040
2023-07-24T11:12:01.834Z,9.280030
2023-07-24T11:13:01.817Z,9.280066
2023-07-24T11:14:01.831Z,9.279961
2023-07-24T11:15:01.795Z,9.280143
2023-07-24T11:16:01.830Z,9.280058
2023-07-24T11:17:01.747Z,9.279918
2023-07-24T11:18:01.771Z,9.279869
2023-07-24T11:19:01.739Z,9.280034
2023-07-24T11:20:01.685Z,9.280010
2023-07-24T11:21:01.673Z,9.280072
2023-07-24T11:22:01.644Z,9.280016
2023-07-24T11:23:01.655Z,9.279830
2023-07-24T11:24:01.639Z,9.279911
2023-07-24T11:25:01.589Z,9.280040
2023-07-24T11:26:01.572Z,9.279984
2023-07-24T11:27:01.557Z,9.279848
2023-07-24T11:28:01.568Z,9.280059
2023-07-24T11:29:01.524Z,9.280128
2023-07-24T11:30:01.501Z,9.279939
2023-07-24T11:31:01.502Z,9.280052
2023-07-24T11:32:01.468Z,9.280001
2023-07-24T11:33:01.545Z,9.279763
2023-07-24T11:34:01.426Z,9.279737
2023-07-24T11:35:01.416Z,9.279809
2023-07-24T11:36:01.425Z,9.279803
2023-07-24T11:37:01.449Z,9.279830
2023-07-24T11:38:01.391Z,9.279976
2023-07-24T11:39:01.338Z,9.279898
2023-07-24T11:40:01.324Z,9.279935
2023-07-24T11:41:03.840Z,9.279963
2023-07-24T11:42:01.328Z,9.279895
2023-07-24T11:43:01.269Z,9.279982
2023-07-24T11:44:01.264Z,9.280164
2023-07-24T11:45:01.246Z,9.280059
2023-07-24T11:46:01.212Z,9.279984